sensor_id;sensor_type;location;lat;lon;timestamp;pressure;altitude;pressure_sealevel;temperature;humidity
56504;BME280;48812;51.606;-0.114;2023-03-21T00:01:01;100655.81;;;16.99;59.73
56504;BME280;48812;51.606;-0.114;2023-03-21T00:03:36;100653.94;;;17.01;59.89
56504;BME280;48812;51.606;-0.114;2023-03-21T00:06:11;100644.41;;;16.95;59.80
56504;BME280;48812;51.606;-0.114;2023-03-21T00:11:39;100640.88;;;16.94;59.84
56504;BME280;48812;51.606;-0.114;2023-03-21T00:14:12;100635.38;;;16.98;59.90
56504;BME280;48812;51.606;-0.114;2023-03-21T00:16:50;100620.44;;;16.93;59.94
56504;BME280;48812;51.606;-0.114;2023-03-21T00:19:24;100627.47;;;16.96;59.99
56504;BME280;48812;51.606;-0.114;2023-03-21T00:21:58;100626.56;;;16.95;59.51
56504;BME280;48812;51.606;-0.114;2023-03-21T00:24:53;100629.31;;;16.94;59.63
56504;BME280;48812;51.606;-0.114;2023-03-21T00:27:27;100625.78;;;16.93;59.69
56504;BME280;48812;51.606;-0.114;2023-03-21T00:30:20;100627.53;;;16.94;60.08
56504;BME280;48812;51.606;-0.114;2023-03-21T00:32:53;100619.59;;;16.93;59.68
56504;BME280;48812;51.606;-0.114;2023-03-21T00:35:27;100619.66;;;16.91;59.58
56504;BME280;48812;51.606;-0.114;2023-03-21T00:38:20;100617.06;;;16.90;59.63
56504;BME280;48812;51.606;-0.114;2023-03-21T00:40:53;100613.50;;;16.89;59.37
56504;BME280;48812;51.606;-0.114;2023-03-21T00:43:30;100614.47;;;16.88;59.62
56504;BME280;48812;51.606;-0.114;2023-03-21T00:46:04;100613.50;;;16.89;59.73
56504;BME280;48812;51.606;-0.114;2023-03-21T00:48:37;100605.59;;;16.88;59.66
56504;BME280;48812;51.606;-0.114;2023-03-21T00:51:19;100603.00;;;16.86;60.00
56504;BME280;48812;51.606;-0.114;2023-03-21T00:53:58;100603.84;;;16.87;59.82
56504;BME280;48812;51.606;-0.114;2023-03-21T00:56:32;100594.16;;;16.84;59.47
56504;BME280;48812;51.606;-0.114;2023-03-21T00:59:04;100592.38;;;16.85;59.87
56504;BME280;48812;51.606;-0.114;2023-03-21T01:01:37;100588.81;;;16.84;59.48
56504;BME280;48812;51.606;-0.114;2023-03-21T01:04:12;100579.94;;;16.84;59.78
56504;BME280;48812;51.606;-0.114;2023-03-21T01:06:46;100574.69;;;16.82;59.78
56504;BME280;48812;51.606;-0.114;2023-03-21T01:09:22;100577.34;;;16.82;59.68
56504;BME280;48812;51.606;-0.114;2023-03-21T01:11:55;100570.19;;;16.83;59.91
56504;BME280;48812;51.606;-0.114;2023-03-21T01:14:27;100562.25;;;16.81;59.69
56504;BME280;48812;51.606;-0.114;2023-03-21T01:17:00;100562.25;;;16.81;59.51
56504;BME280;48812;51.606;-0.114;2023-03-21T01:19:33;100556.91;;;16.81;59.30
56504;BME280;48812;51.606;-0.114;2023-03-21T01:22:22;100553.41;;;16.81;59.51
56504;BME280;48812;51.606;-0.114;2023-03-21T01:24:55;100543.66;;;16.80;60.04
56504;BME280;48812;51.606;-0.114;2023-03-21T01:27:44;100542.78;;;16.79;59.49
56504;BME280;48812;51.606;-0.114;2023-03-21T01:30:17;100541.94;;;16.78;59.71
56504;BME280;48812;51.606;-0.114;2023-03-21T01:32:54;100534.00;;;16.77;59.40
56504;BME280;48812;51.606;-0.114;2023-03-21T01:35:27;100528.66;;;16.77;59.57
56504;BME280;48812;51.606;-0.114;2023-03-21T01:38:08;100531.31;;;16.77;59.63
56504;BME280;48812;51.606;-0.114;2023-03-21T01:40:48;100526.91;;;16.76;59.47
56504;BME280;48812;51.606;-0.114;2023-03-21T01:43:36;100524.25;;;16.76;59.64
56504;BME280;48812;51.606;-0.114;2023-03-21T01:46:25;100525.19;;;16.75;59.45
56504;BME280;48812;51.606;-0.114;2023-03-21T01:49:22;100519.03;;;16.73;59.11
56504;BME280;48812;51.606;-0.114;2023-03-21T01:52:09;100523.47;;;16.74;59.60
56504;BME280;48812;51.606;-0.114;2023-03-21T01:54:59;100518.19;;;16.72;59.24
56504;BME280;48812;51.606;-0.114;2023-03-21T01:57:46;100513.81;;;16.71;59.52
56504;BME280;48812;51.606;-0.114;2023-03-21T02:00:41;100513.88;;;16.70;59.72
56504;BME280;48812;51.606;-0.114;2023-03-21T02:03:28;100512.06;;;16.70;59.58
56504;BME280;48812;51.606;-0.114;2023-03-21T02:09:21;100503.28;;;16.68;59.44
56504;BME280;48812;51.606;-0.114;2023-03-21T02:11:56;100505.06;;;16.68;59.15
56504;BME280;48812;51.606;-0.114;2023-03-21T02:14:35;100495.34;;;16.67;59.55
56504;BME280;48812;51.606;-0.114;2023-03-21T02:17:44;100492.66;;;16.67;59.56
56504;BME280;48812;51.606;-0.114;2023-03-21T02:38:18;100457.41;;;16.60;59.53
56504;BME280;48812;51.606;-0.114;2023-03-21T02:41:15;100463.59;;;16.61;59.03
56504;BME280;48812;51.606;-0.114;2023-03-21T02:43:56;100454.81;;;16.58;59.61
56504;BME280;48812;51.606;-0.114;2023-03-21T02:46:43;100459.09;;;16.61;59.52
56504;BME280;48812;51.606;-0.114;2023-03-21T02:52:28;100453.06;;;16.57;59.47
56504;BME280;48812;51.606;-0.114;2023-03-21T02:55:31;100455.72;;;16.57;59.32
56504;BME280;48812;51.606;-0.114;2023-03-21T02:58:11;100446.09;;;16.55;59.45
56504;BME280;48812;51.606;-0.114;2023-03-21T03:00:55;100445.97;;;16.56;59.66
56504;BME280;48812;51.606;-0.114;2023-03-21T03:03:39;100437.19;;;16.54;59.25
56504;BME280;48812;51.606;-0.114;2023-03-21T03:06:20;100435.47;;;16.53;59.50
56504;BME280;48812;51.606;-0.114;2023-03-21T03:11:39;100439.94;;;16.53;59.36
56504;BME280;48812;51.606;-0.114;2023-03-21T03:14:34;100430.13;;;16.53;59.04
56504;BME280;48812;51.606;-0.114;2023-03-21T03:20:23;100425.72;;;16.52;59.67
56504;BME280;48812;51.606;-0.114;2023-03-21T03:23:11;100429.31;;;16.51;59.67
56504;BME280;48812;51.606;-0.114;2023-03-21T03:28:51;100421.47;;;16.48;59.44
56504;BME280;48812;51.606;-0.114;2023-03-21T03:31:35;100416.13;;;16.48;59.40
56504;BME280;48812;51.606;-0.114;2023-03-21T03:34:14;100413.47;;;16.48;59.19
56504;BME280;48812;51.606;-0.114;2023-03-21T03:36:56;100393.06;;;16.47;58.97
56504;BME280;48812;51.606;-0.114;2023-03-21T03:39:55;100403.75;;;16.47;59.22
56504;BME280;48812;51.606;-0.114;2023-03-21T03:42:51;100402.88;;;16.47;58.93
56504;BME280;48812;51.606;-0.114;2023-03-21T03:45:39;100392.38;;;16.44;59.43
56504;BME280;48812;51.606;-0.114;2023-03-21T03:48:24;100387.88;;;16.44;58.98
56504;BME280;48812;51.606;-0.114;2023-03-21T03:51:16;100381.69;;;16.44;59.32
56504;BME280;48812;51.606;-0.114;2023-03-21T03:54:15;100373.75;;;16.42;59.22
56504;BME280;48812;51.606;-0.114;2023-03-21T03:56:50;100379.09;;;16.42;58.76
56504;BME280;48812;51.606;-0.114;2023-03-21T03:59:24;100360.41;;;16.42;59.04
56504;BME280;48812;51.606;-0.114;2023-03-21T04:02:13;100359.59;;;16.40;59.36
56504;BME280;48812;51.606;-0.114;2023-03-21T04:04:45;100354.38;;;16.38;59.01
56504;BME280;48812;51.606;-0.114;2023-03-21T04:07:19;100348.06;;;16.39;59.25
56504;BME280;48812;51.606;-0.114;2023-03-21T04:09:54;100357.88;;;16.39;59.11
56504;BME280;48812;51.606;-0.114;2023-03-21T04:12:29;100371.31;;;16.37;59.54
56504;BME280;48812;51.606;-0.114;2023-03-21T04:15:37;100372.16;;;16.38;59.43
56504;BME280;48812;51.606;-0.114;2023-03-21T04:18:18;100359.78;;;16.37;59.09
56504;BME280;48812;51.606;-0.114;2023-03-21T04:20:50;100357.09;;;16.37;59.23
56504;BME280;48812;51.606;-0.114;2023-03-21T04:23:23;100355.38;;;16.36;59.05
56504;BME280;48812;51.606;-0.114;2023-03-21T04:25:56;100358.03;;;16.36;59.70
56504;BME280;48812;51.606;-0.114;2023-03-21T04:28:39;100356.28;;;16.35;59.12
56504;BME280;48812;51.606;-0.114;2023-03-21T04:31:35;100339.44;;;16.34;59.73
56504;BME280;48812;51.606;-0.114;2023-03-21T04:34:13;100346.59;;;16.34;59.15
56504;BME280;48812;51.606;-0.114;2023-03-21T04:36:51;100331.50;;;16.33;59.39
56504;BME280;48812;51.606;-0.114;2023-03-21T04:39:27;100329.69;;;16.33;59.23
56504;BME280;48812;51.606;-0.114;2023-03-21T04:41:59;100319.09;;;16.32;59.55
56504;BME280;48812;51.606;-0.114;2023-03-21T04:44:33;100337.69;;;16.33;59.88
56504;BME280;48812;51.606;-0.114;2023-03-21T04:47:06;100335.09;;;16.32;59.34
56504;BME280;48812;51.606;-0.114;2023-03-21T04:49:41;100359.22;;;16.30;59.58
56504;BME280;48812;51.606;-0.114;2023-03-21T04:52:15;100336.97;;;16.30;59.70
56504;BME280;48812;51.606;-0.114;2023-03-21T04:54:48;100332.53;;;16.30;59.50
56504;BME280;48812;51.606;-0.114;2023-03-21T04:57:22;100344.13;;;16.29;59.55
56504;BME280;48812;51.606;-0.114;2023-03-21T04:59:54;100332.59;;;16.29;59.57
56504;BME280;48812;51.606;-0.114;2023-03-21T05:02:27;100328.19;;;16.28;58.99
56504;BME280;48812;51.606;-0.114;2023-03-21T05:04:59;100337.06;;;16.28;59.20
56504;BME280;48812;51.606;-0.114;2023-03-21T05:07:32;100337.13;;;16.27;59.48
56504;BME280;48812;51.606;-0.114;2023-03-21T05:10:05;100329.13;;;16.27;59.46
56504;BME280;48812;51.606;-0.114;2023-03-21T05:12:40;100319.41;;;16.26;59.50
56504;BME280;48812;51.606;-0.114;2023-03-21T05:15:13;100315.00;;;16.25;59.54
56504;BME280;48812;51.606;-0.114;2023-03-21T05:17:46;100317.69;;;16.25;59.30
56504;BME280;48812;51.606;-0.114;2023-03-21T05:20:20;100315.94;;;16.23;59.26
56504;BME280;48812;51.606;-0.114;2023-03-21T05:22:54;100320.41;;;16.23;59.40
56504;BME280;48812;51.606;-0.114;2023-03-21T05:25:26;100318.72;;;16.22;59.57
56504;BME280;48812;51.606;-0.114;2023-03-21T05:28:24;100312.50;;;16.21;59.10
56504;BME280;48812;51.606;-0.114;2023-03-21T05:31:05;100315.22;;;16.20;59.49
56504;BME280;48812;51.606;-0.114;2023-03-21T05:33:37;100314.31;;;16.21;59.20
56504;BME280;48812;51.606;-0.114;2023-03-21T05:36:10;100316.13;;;16.20;59.52
56504;BME280;48812;51.606;-0.114;2023-03-21T05:38:44;100326.78;;;16.20;59.30
56504;BME280;48812;51.606;-0.114;2023-03-21T05:41:18;100317.97;;;16.18;59.70
56504;BME280;48812;51.606;-0.114;2023-03-21T05:43:52;100306.38;;;16.19;59.21
56504;BME280;48812;51.606;-0.114;2023-03-21T05:46:25;100308.19;;;16.19;59.32
56504;BME280;48812;51.606;-0.114;2023-03-21T05:48:58;100300.25;;;16.17;59.51
56504;BME280;48812;51.606;-0.114;2023-03-21T05:51:31;100301.13;;;16.18;59.01
56504;BME280;48812;51.606;-0.114;2023-03-21T05:54:04;100287.84;;;16.16;59.59
56504;BME280;48812;51.606;-0.114;2023-03-21T05:56:39;100299.38;;;16.17;59.23
56504;BME280;48812;51.606;-0.114;2023-03-21T05:59:16;100299.38;;;16.17;59.26
56504;BME280;48812;51.606;-0.114;2023-03-21T06:01:50;100291.44;;;16.15;59.26
56504;BME280;48812;51.606;-0.114;2023-03-21T06:04:24;100297.75;;;16.14;59.25
56504;BME280;48812;51.606;-0.114;2023-03-21T06:06:58;100303.94;;;16.15;59.35
56504;BME280;48812;51.606;-0.114;2023-03-21T06:09:30;100299.56;;;16.14;59.33
56504;BME280;48812;51.606;-0.114;2023-03-21T06:12:07;100300.56;;;16.11;59.29
56504;BME280;48812;51.606;-0.114;2023-03-21T06:14:57;100297.81;;;16.13;59.14
56504;BME280;48812;51.606;-0.114;2023-03-21T06:17:42;100293.34;;;16.13;59.17
56504;BME280;48812;51.606;-0.114;2023-03-21T06:20:16;100288.13;;;16.10;59.28
56504;BME280;48812;51.606;-0.114;2023-03-21T06:22:54;100287.22;;;16.11;59.25
56504;BME280;48812;51.606;-0.114;2023-03-21T06:25:26;100293.47;;;16.10;59.18
56504;BME280;48812;51.606;-0.114;2023-03-21T06:28:00;100291.78;;;16.09;59.41
56504;BME280;48812;51.606;-0.114;2023-03-21T06:30:33;100285.47;;;16.10;59.21
56504;BME280;48812;51.606;-0.114;2023-03-21T06:33:20;100291.78;;;16.09;59.30
56504;BME280;48812;51.606;-0.114;2023-03-21T06:35:54;100290.00;;;16.08;59.24
56504;BME280;48812;51.606;-0.114;2023-03-21T06:38:27;100288.19;;;16.09;59.25
56504;BME280;48812;51.606;-0.114;2023-03-21T06:41:00;100291.81;;;16.08;59.06
56504;BME280;48812;51.606;-0.114;2023-03-21T06:43:41;100293.59;;;16.07;59.34
56504;BME280;48812;51.606;-0.114;2023-03-21T06:46:14;100299.88;;;16.06;59.29
56504;BME280;48812;51.606;-0.114;2023-03-21T06:48:49;100297.22;;;16.06;59.54
56504;BME280;48812;51.606;-0.114;2023-03-21T06:51:22;100292.72;;;16.07;59.26
56504;BME280;48812;51.606;-0.114;2023-03-21T06:54:30;100288.25;;;16.07;59.04
56504;BME280;48812;51.606;-0.114;2023-03-21T06:57:13;100285.59;;;16.07;59.35
56504;BME280;48812;51.606;-0.114;2023-03-21T06:59:45;100281.94;;;16.10;59.43
56504;BME280;48812;51.606;-0.114;2023-03-21T07:02:22;100277.31;;;16.13;59.72
56504;BME280;48812;51.606;-0.114;2023-03-21T07:05:05;100274.59;;;16.15;59.64
56504;BME280;48812;51.606;-0.114;2023-03-21T07:07:38;100277.97;;;16.18;59.63
56504;BME280;48812;51.606;-0.114;2023-03-21T07:10:12;100281.44;;;16.20;59.73
56504;BME280;48812;51.606;-0.114;2023-03-21T07:13:00;100281.19;;;16.25;59.58
56504;BME280;48812;51.606;-0.114;2023-03-21T07:15:56;100281.94;;;16.29;59.74
56504;BME280;48812;51.606;-0.114;2023-03-21T07:18:29;100282.69;;;16.31;59.91
56504;BME280;48812;51.606;-0.114;2023-03-21T07:21:02;100281.66;;;16.33;60.21
56504;BME280;48812;51.606;-0.114;2023-03-21T07:23:35;100278.94;;;16.35;59.73
56504;BME280;48812;51.606;-0.114;2023-03-21T07:26:09;100277.84;;;16.39;59.92
56504;BME280;48812;51.606;-0.114;2023-03-21T07:28:43;100270.63;;;16.41;59.88
56504;BME280;48812;51.606;-0.114;2023-03-21T07:31:16;100275.81;;;16.44;60.12
56504;BME280;48812;51.606;-0.114;2023-03-21T07:33:49;100269.47;;;16.47;60.29
56504;BME280;48812;51.606;-0.114;2023-03-21T07:36:21;100273.75;;;16.49;59.63
56504;BME280;48812;51.606;-0.114;2023-03-21T07:38:54;100278.94;;;16.52;60.05
56504;BME280;48812;51.606;-0.114;2023-03-21T07:41:28;100272.59;;;16.55;60.00
56504;BME280;48812;51.606;-0.114;2023-03-21T07:44:14;100280.44;;;16.58;60.13
56504;BME280;48812;51.606;-0.114;2023-03-21T07:46:46;100293.63;;;16.61;60.08
56504;BME280;48812;51.606;-0.114;2023-03-21T07:49:19;100295.34;;;16.62;60.38
56504;BME280;48812;51.606;-0.114;2023-03-21T07:51:52;100289.09;;;16.63;60.49
56504;BME280;48812;51.606;-0.114;2023-03-21T07:54:25;100282.72;;;16.66;60.36
56504;BME280;48812;51.606;-0.114;2023-03-21T07:57:00;100288.06;;;16.66;59.76
56504;BME280;48812;51.606;-0.114;2023-03-21T07:59:33;100291.34;;;16.71;60.11
56504;BME280;48812;51.606;-0.114;2023-03-21T08:02:06;100285.06;;;16.72;59.85
56504;BME280;48812;51.606;-0.114;2023-03-21T08:04:39;100286.78;;;16.73;59.99
56504;BME280;48812;51.606;-0.114;2023-03-21T08:07:11;100284.91;;;16.75;60.27
56504;BME280;48812;51.606;-0.114;2023-03-21T08:09:44;100291.97;;;16.76;60.30
56504;BME280;48812;51.606;-0.114;2023-03-21T08:12:17;100278.53;;;16.77;60.52
56504;BME280;48812;51.606;-0.114;2023-03-21T08:14:50;100277.53;;;16.80;60.23
56504;BME280;48812;51.606;-0.114;2023-03-21T08:17:23;100279.25;;;16.81;59.95
56504;BME280;48812;51.606;-0.114;2023-03-21T08:19:55;100286.31;;;16.82;60.12
56504;BME280;48812;51.606;-0.114;2023-03-21T08:22:27;100288.06;;;16.83;59.84
56504;BME280;48812;51.606;-0.114;2023-03-21T08:25:01;100285.31;;;16.85;60.44
56504;BME280;48812;51.606;-0.114;2023-03-21T08:27:35;100280.81;;;16.85;60.11
56504;BME280;48812;51.606;-0.114;2023-03-21T08:30:09;100283.41;;;16.87;59.90
56504;BME280;48812;51.606;-0.114;2023-03-21T08:32:43;100292.19;;;16.89;59.92
56504;BME280;48812;51.606;-0.114;2023-03-21T08:35:17;100297.53;;;16.89;60.01
56504;BME280;48812;51.606;-0.114;2023-03-21T08:37:50;100306.31;;;16.91;60.67
56504;BME280;48812;51.606;-0.114;2023-03-21T08:40:22;100308.06;;;16.92;59.99
56504;BME280;48812;51.606;-0.114;2023-03-21T08:42:55;100303.50;;;16.94;60.25
56504;BME280;48812;51.606;-0.114;2023-03-21T08:45:28;100300.81;;;16.94;60.25
56504;BME280;48812;51.606;-0.114;2023-03-21T08:48:01;100298.97;;;16.96;60.02
56504;BME280;48812;51.606;-0.114;2023-03-21T08:50:37;100293.63;;;16.96;60.49
56504;BME280;48812;51.606;-0.114;2023-03-21T08:53:09;100294.47;;;16.96;59.83
56504;BME280;48812;51.606;-0.114;2023-03-21T08:55:42;100290.00;;;16.97;60.26
56504;BME280;48812;51.606;-0.114;2023-03-21T08:58:15;100285.50;;;16.98;59.61
56504;BME280;48812;51.606;-0.114;2023-03-21T09:00:48;100277.50;;;16.98;59.76
56504;BME280;48812;51.606;-0.114;2023-03-21T09:03:20;100273.88;;;16.99;59.73
56504;BME280;48812;51.606;-0.114;2023-03-21T09:05:53;100263.22;;;16.99;60.29
56504;BME280;48812;51.606;-0.114;2023-03-21T09:08:25;100257.78;;;17.00;60.00
56504;BME280;48812;51.606;-0.114;2023-03-21T09:10:59;100258.63;;;17.01;60.11
56504;BME280;48812;51.606;-0.114;2023-03-21T09:13:31;100248.84;;;17.01;59.80
56504;BME280;48812;51.606;-0.114;2023-03-21T09:16:04;100242.63;;;17.01;59.97
56504;BME280;48812;51.606;-0.114;2023-03-21T09:18:37;100251.50;;;17.01;59.65
56504;BME280;48812;51.606;-0.114;2023-03-21T09:21:21;100252.38;;;17.02;60.13
56504;BME280;48812;51.606;-0.114;2023-03-21T09:23:55;100249.69;;;17.02;59.50
56504;BME280;48812;51.606;-0.114;2023-03-21T09:26:29;100251.44;;;17.03;59.49
56504;BME280;48812;51.606;-0.114;2023-03-21T09:29:02;100246.09;;;17.03;60.05
56504;BME280;48812;51.606;-0.114;2023-03-21T09:31:37;100238.94;;;17.03;59.64
56504;BME280;48812;51.606;-0.114;2023-03-21T09:34:11;100249.53;;;17.05;59.60
56504;BME280;48812;51.606;-0.114;2023-03-21T09:36:45;100246.78;;;17.06;59.76
56504;BME280;48812;51.606;-0.114;2023-03-21T09:39:23;100254.72;;;17.08;59.74
56504;BME280;48812;51.606;-0.114;2023-03-21T09:48:16;100238.69;;;17.08;59.74
56504;BME280;48812;51.606;-0.114;2023-03-21T09:51:04;100244.13;;;17.06;59.57
56504;BME280;48812;51.606;-0.114;2023-03-21T09:53:40;100242.28;;;17.07;59.39
56504;BME280;48812;51.606;-0.114;2023-03-21T09:56:17;100245.91;;;17.06;59.36
56504;BME280;48812;51.606;-0.114;2023-03-21T09:58:53;100259.25;;;17.06;59.18
56504;BME280;48812;51.606;-0.114;2023-03-21T10:01:33;100253.91;;;17.06;59.45
56504;BME280;48812;51.606;-0.114;2023-03-21T10:04:16;100247.63;;;17.07;59.92
56504;BME280;48812;51.606;-0.114;2023-03-21T10:07:00;100246.78;;;17.06;59.39
56504;BME280;48812;51.606;-0.114;2023-03-21T10:09:39;100251.25;;;17.06;59.06
56504;BME280;48812;51.606;-0.114;2023-03-21T10:12:24;100244.97;;;17.07;59.49
56504;BME280;48812;51.606;-0.114;2023-03-21T10:15:02;100251.25;;;17.06;59.80
56504;BME280;48812;51.606;-0.114;2023-03-21T10:17:41;100247.72;;;17.05;59.53
56504;BME280;48812;51.606;-0.114;2023-03-21T10:20:22;100251.25;;;17.06;59.60
56504;BME280;48812;51.606;-0.114;2023-03-21T10:22:57;100249.53;;;17.05;59.59
56504;BME280;48812;51.606;-0.114;2023-03-21T10:25:41;100253.13;;;17.04;59.39
56504;BME280;48812;51.606;-0.114;2023-03-21T10:28:17;100239.00;;;17.02;59.48
56504;BME280;48812;51.606;-0.114;2023-03-21T10:31:02;100237.13;;;17.04;59.18
56504;BME280;48812;51.606;-0.114;2023-03-21T10:33:38;100231.78;;;17.04;59.44
56504;BME280;48812;51.606;-0.114;2023-03-21T10:36:25;100221.84;;;17.06;59.51
56504;BME280;48812;51.606;-0.114;2023-03-21T10:39:07;100215.59;;;17.07;59.26
56504;BME280;48812;51.606;-0.114;2023-03-21T10:41:45;100208.34;;;17.09;58.84
56504;BME280;48812;51.606;-0.114;2023-03-21T10:44:18;100217.16;;;17.11;58.91
56504;BME280;48812;51.606;-0.114;2023-03-21T10:49:24;100215.25;;;17.13;58.95
56504;BME280;48812;51.606;-0.114;2023-03-21T10:52:04;100203.72;;;17.12;59.06
56504;BME280;48812;51.606;-0.114;2023-03-21T10:54:37;100196.56;;;17.13;59.29
56504;BME280;48812;51.606;-0.114;2023-03-21T10:57:15;100198.25;;;17.14;58.96
56504;BME280;48812;51.606;-0.114;2023-03-21T10:59:54;100197.34;;;17.15;59.05
56504;BME280;48812;51.606;-0.114;2023-03-21T11:02:34;100193.72;;;17.16;58.52
56504;BME280;48812;51.606;-0.114;2023-03-21T11:08:19;100190.09;;;17.17;58.67
56504;BME280;48812;51.606;-0.114;2023-03-21T11:13:46;100181.91;;;17.20;58.85
56504;BME280;48812;51.606;-0.114;2023-03-21T11:16:40;100183.66;;;17.21;58.55
56504;BME280;48812;51.606;-0.114;2023-03-21T11:19:19;100179.16;;;17.22;58.26
56504;BME280;48812;51.606;-0.114;2023-03-21T11:22:02;100162.19;;;17.23;58.45
56504;BME280;48812;51.606;-0.114;2023-03-21T11:24:51;100177.16;;;17.25;58.58
56504;BME280;48812;51.606;-0.114;2023-03-21T11:27:29;100180.66;;;17.27;58.76
56504;BME280;48812;51.606;-0.114;2023-03-21T11:30:03;100164.44;;;17.30;58.76
56504;BME280;48812;51.606;-0.114;2023-03-21T11:32:37;100171.53;;;17.31;58.63
56504;BME280;48812;51.606;-0.114;2023-03-21T11:37:49;100166.88;;;17.35;58.67
56504;BME280;48812;51.606;-0.114;2023-03-21T11:40:28;100160.50;;;17.38;58.57
56504;BME280;48812;51.606;-0.114;2023-03-21T11:45:35;100163.84;;;17.41;58.84
56504;BME280;48812;51.606;-0.114;2023-03-21T11:48:12;100170.84;;;17.44;58.70
56504;BME280;48812;51.606;-0.114;2023-03-21T11:50:49;100170.78;;;17.45;59.05
56504;BME280;48812;51.606;-0.114;2023-03-21T11:53:36;100174.28;;;17.46;59.25
56504;BME280;48812;51.606;-0.114;2023-03-21T11:56:22;100174.22;;;17.47;58.78
56504;BME280;48812;51.606;-0.114;2023-03-21T12:19:32;100169.44;;;17.68;58.87
56504;BME280;48812;51.606;-0.114;2023-03-21T12:25:12;100167.53;;;17.71;58.65
56504;BME280;48812;51.606;-0.114;2023-03-21T12:30:52;100164.69;;;17.74;59.03
56504;BME280;48812;51.606;-0.114;2023-03-21T12:44:34;100139.13;;;17.84;58.93
56504;BME280;48812;51.606;-0.114;2023-03-21T12:47:18;100142.66;;;17.84;58.79
56504;BME280;48812;51.606;-0.114;2023-03-21T12:50:27;100144.31;;;17.87;58.93
56504;BME280;48812;51.606;-0.114;2023-03-21T12:56:08;100152.34;;;17.87;58.84
56504;BME280;48812;51.606;-0.114;2023-03-21T12:58:50;100147.75;;;17.89;59.11
56504;BME280;48812;51.606;-0.114;2023-03-21T13:01:25;100138.69;;;17.92;59.24
56504;BME280;48812;51.606;-0.114;2023-03-21T13:07:06;100143.06;;;17.93;58.60
56504;BME280;48812;51.606;-0.114;2023-03-21T13:09:41;100130.59;;;17.93;58.76
56504;BME280;48812;51.606;-0.114;2023-03-21T13:15:22;100134.13;;;17.94;58.89
56504;BME280;48812;51.606;-0.114;2023-03-21T13:20:51;100115.47;;;17.92;58.39
56504;BME280;48812;51.606;-0.114;2023-03-21T13:23:34;100127.13;;;17.91;59.17
56504;BME280;48812;51.606;-0.114;2023-03-21T13:26:09;100116.41;;;17.91;59.26
56504;BME280;48812;51.606;-0.114;2023-03-21T13:28:42;100122.75;;;17.90;58.83
56504;BME280;48812;51.606;-0.114;2023-03-21T13:33:53;100112.22;;;17.87;58.14
56504;BME280;48812;51.606;-0.114;2023-03-21T13:36:30;100103.34;;;17.86;58.40
56504;BME280;48812;51.606;-0.114;2023-03-21T13:39:24;100113.16;;;17.86;58.64
56504;BME280;48812;51.606;-0.114;2023-03-21T13:42:02;100107.06;;;17.84;58.81
56504;BME280;48812;51.606;-0.114;2023-03-21T13:44:40;100112.50;;;17.82;58.23
56504;BME280;48812;51.606;-0.114;2023-03-21T13:47:41;100102.63;;;17.83;58.43
56504;BME280;48812;51.606;-0.114;2023-03-21T13:50:28;100099.19;;;17.81;58.17
56504;BME280;48812;51.606;-0.114;2023-03-21T13:55:57;100085.38;;;17.88;58.93
56504;BME280;48812;51.606;-0.114;2023-03-21T13:58:36;100091.22;;;17.95;58.59
56504;BME280;48812;51.606;-0.114;2023-03-21T14:03:48;100100.06;;;18.12;58.22
56504;BME280;48812;51.606;-0.114;2023-03-21T14:06:22;100098.53;;;18.22;58.03
56504;BME280;48812;51.606;-0.114;2023-03-21T14:08:56;100088.97;;;18.32;57.64
56504;BME280;48812;51.606;-0.114;2023-03-21T14:11:31;100093.72;;;18.43;57.43
56504;BME280;48812;51.606;-0.114;2023-03-21T14:14:04;100088.19;;;18.46;57.64
56504;BME280;48812;51.606;-0.114;2023-03-21T14:16:37;100090.75;;;18.48;56.91
56504;BME280;48812;51.606;-0.114;2023-03-21T14:19:10;100089.88;;;18.47;57.47
56504;BME280;48812;51.606;-0.114;2023-03-21T14:21:48;100083.09;;;18.41;57.83
56504;BME280;48812;51.606;-0.114;2023-03-21T14:24:22;100085.78;;;18.41;56.96
56504;BME280;48812;51.606;-0.114;2023-03-21T14:26:54;100074.31;;;18.39;56.74
56504;BME280;48812;51.606;-0.114;2023-03-21T14:29:33;100077.94;;;18.38;56.80
56504;BME280;48812;51.606;-0.114;2023-03-21T14:32:13;100089.97;;;18.46;57.14
56504;BME280;48812;51.606;-0.114;2023-03-21T14:34:50;100080.41;;;18.70;56.50
56504;BME280;48812;51.606;-0.114;2023-03-21T14:37:37;100076.59;;;18.89;56.45
56504;BME280;48812;51.606;-0.114;2023-03-21T14:40:24;100075.13;;;18.97;55.93
56504;BME280;48812;51.606;-0.114;2023-03-21T14:43:03;100080.34;;;19.13;55.74
56504;BME280;48812;51.606;-0.114;2023-03-21T14:45:36;100082.13;;;19.42;55.35
56504;BME280;48812;51.606;-0.114;2023-03-21T14:48:13;100099.22;;;19.53;55.29
56504;BME280;48812;51.606;-0.114;2023-03-21T14:50:52;100089.34;;;19.54;55.03
56504;BME280;48812;51.606;-0.114;2023-03-21T14:53:30;100092.53;;;19.46;55.10
56504;BME280;48812;51.606;-0.114;2023-03-21T14:56:09;100094.88;;;19.38;55.50
56504;BME280;48812;51.606;-0.114;2023-03-21T14:58:47;100092.00;;;19.27;55.21
56504;BME280;48812;51.606;-0.114;2023-03-21T15:01:29;100091.63;;;19.19;55.14
56504;BME280;48812;51.606;-0.114;2023-03-21T15:04:05;100096.63;;;19.10;55.60
56504;BME280;48812;51.606;-0.114;2023-03-21T15:07:05;100093.59;;;19.02;55.57
56504;BME280;48812;51.606;-0.114;2023-03-21T15:09:52;100096.75;;;18.94;55.99
56504;BME280;48812;51.606;-0.114;2023-03-21T15:12:25;100096.38;;;18.86;55.58
56504;BME280;48812;51.606;-0.114;2023-03-21T15:14:59;100095.91;;;18.79;55.84
56504;BME280;48812;51.606;-0.114;2023-03-21T15:17:32;100086.56;;;18.72;56.09
56504;BME280;48812;51.606;-0.114;2023-03-21T15:20:05;100092.28;;;18.66;56.00
56504;BME280;48812;51.606;-0.114;2023-03-21T15:22:45;100089.03;;;18.61;55.78
56504;BME280;48812;51.606;-0.114;2023-03-21T15:25:24;100087.59;;;18.55;56.07
56504;BME280;48812;51.606;-0.114;2023-03-21T15:28:01;100078.81;;;18.53;55.87
56504;BME280;48812;51.606;-0.114;2023-03-21T15:30:36;100076.59;;;18.60;56.08